Hlavní strana
METAR-TAF:

METAR-TAF

Letiště :

Krasnodar, Rusko

zeměpisná šířka: 45-02N, zeměpisná délka: 039-09E, výška: 33 m

Aktuální stav počasí

Zpráva byla vytvořena před 10 minutami, v 15:00 UTC
Západojihozápadní vítr 14 kt
Teplota 15°C
Vlhkost vzduchu 59%
Tlak 1013 hPa
Viditelnost 10 km a více
Žádná oblačnost pod 1500 m, nevyskytují se cumulonimby.

METAR: URKK 241500Z 25007MPS CAVOK 15/07 Q1013 R23L/CLRD70 TEMPO 2000 SHRA BKN020CB RMK QFE757

Čas: 19:10 (15:10 UTC)

Předpověď počasí

Zpráva byla vytvořena před 1 hodinou a 14 minutami, v 13:56 UTC
Předpověď platná od 24 v 15 UTC do 25 v 15 UTC
Západojihozápadní vítr 12 kt s nárazy do 23 kt
Viditelnost 10 km a více
Polojasno ve výšce 3000 ft, Cumulonimbus.
Dočasný
od 24 v 15 UTC do 25 v 15 UTC
vítr z různých směrů 23 kt s nárazy do 37 kt
Viditelnost: 1000 m
Polojasno ve výšce 500 ft
Oblačno až skoro zataženo ve výšce 2000 ft, Cumulonimbus.
bouřka, déšť

TAF: URKK 241356Z 2415/2515 24006G12MPS 9999 SCT030CB TEMPO 2415/2515 VRB12G19MPS 1000 TSRA SCT005 BKN020CB

Stav a předpovědi počasí z více než 4 000 letišť (zprávy METAR a TAF).

Červené a žluté tečky na mapě představují dostupné meteorologické stanice.

Když kurzor umístíte na tečku, zobrazí se název stanice.

Pak kliknutím zobrazíte stav a předpověď počasí.

Chcete-li změnit mapu, kliknutím na zelené tlačítko se znaménkem +mapu přiblížíte, kliknutím na zelené tlačítko se znaménkem – mapu oddálíte a kliknutím na zelené šipky přejdete na sousední mapy.


METAR-TAF: